地図

経路データ

SID SEASON NUMBER BASIN SUBBASIN NAME ISO_TIME NATURE LAT LON WMO_WIND WMO_PRES WMO_AGENCY TRACK_TYPE DIST2LAND LANDFALL IFLAG USA_AGENCY USA_ATCF_ID USA_LAT USA_LON USA_RECORD USA_STATUS USA_WIND USA_PRES USA_SSHS USA_R34_NE USA_R34_SE USA_R34_SW USA_R34_NW USA_R50_NE USA_R50_SE USA_R50_SW USA_R50_NW USA_R64_NE USA_R64_SE USA_R64_SW USA_R64_NW USA_POCI USA_ROCI USA_RMW USA_EYE TOKYO_LAT TOKYO_LON TOKYO_GRADE TOKYO_WIND TOKYO_PRES TOKYO_R50_DIR TOKYO_R50_LONG TOKYO_R50_SHORT TOKYO_R30_DIR TOKYO_R30_LONG TOKYO_R30_SHORT TOKYO_LAND CMA_LAT CMA_LON CMA_CAT CMA_WIND CMA_PRES HKO_LAT HKO_LON HKO_CAT HKO_WIND HKO_PRES NEWDELHI_LAT NEWDELHI_LON NEWDELHI_GRADE NEWDELHI_WIND NEWDELHI_PRES NEWDELHI_CI NEWDELHI_DP NEWDELHI_POCI REUNION_LAT REUNION_LON REUNION_TYPE REUNION_WIND REUNION_PRES REUNION_TNUM REUNION_CI REUNION_RMW REUNION_R34_NE REUNION_R34_SE REUNION_R34_SW REUNION_R34_NW REUNION_R50_NE REUNION_R50_SE REUNION_R50_SW REUNION_R50_NW REUNION_R64_NE REUNION_R64_SE REUNION_R64_SW REUNION_R64_NW BOM_LAT BOM_LON BOM_TYPE BOM_WIND BOM_PRES BOM_TNUM BOM_CI BOM_RMW BOM_R34_NE BOM_R34_SE BOM_R34_SW BOM_R34_NW BOM_R50_NE BOM_R50_SE BOM_R50_SW BOM_R50_NW BOM_R64_NE BOM_R64_SE BOM_R64_SW BOM_R64_NW BOM_ROCI BOM_POCI BOM_EYE BOM_POS_METHOD BOM_PRES_METHOD NADI_LAT NADI_LON NADI_CAT NADI_WIND NADI_PRES WELLINGTON_LAT WELLINGTON_LON WELLINGTON_WIND WELLINGTON_PRES DS824_LAT DS824_LON DS824_STAGE DS824_WIND DS824_PRES TD9636_LAT TD9636_LON TD9636_STAGE TD9636_WIND TD9636_PRES TD9635_LAT TD9635_LON TD9635_WIND TD9635_PRES TD9635_ROCI NEUMANN_LAT NEUMANN_LON NEUMANN_CLASS NEUMANN_WIND NEUMANN_PRES MLC_LAT MLC_LON MLC_CLASS MLC_WIND MLC_PRES USA_GUST BOM_GUST BOM_GUST_PER REUNION_GUST REUNION_GUST_PER USA_SEAHGT USA_SEARAD_NE USA_SEARAD_SE USA_SEARAD_SW USA_SEARAD_NW STORM_SPEED STORM_DIR
1995279N15153 1995 78 WP MM VAL 1995-10-05 18:00:00 NR 14.9000 152.500 main 1979 1979 O_____________ jtwc_wp WP251995 14.9000 152.500 15 -1 2 330
1995279N15153 1995 78 WP MM VAL 1995-10-05 21:00:00 NR 15.0025 152.448 main 1989 1989 P_____________ WP251995 15.0025 152.448 15 -1 2 333
1995279N15153 1995 78 WP MM VAL 1995-10-06 00:00:00 NR 15.1000 152.400 main 2000 2000 O_____________ jtwc_wp WP251995 15.1000 152.400 15 -1 2 335
1995279N15153 1995 78 WP MM VAL 1995-10-06 03:00:00 NR 15.1925 152.357 main 2012 2011 P_____________ WP251995 15.1925 152.357 15 -1 2 333
1995279N15153 1995 78 WP MM VAL 1995-10-06 06:00:00 NR 15.3000 152.300 main 2022 2022 O_____________ jtwc_wp WP251995 15.3000 152.300 15 -1 3 330
1995279N15153 1995 78 WP MM VAL 1995-10-06 09:00:00 NR 15.4425 152.208 main 2030 2030 P_____________ WP251995 15.4425 152.208 15 -1 4 327
1995279N15153 1995 78 WP MM VAL 1995-10-06 12:00:00 NR 15.6000 152.100 main 2049 2049 O_____________ jtwc_wp WP251995 15.6000 152.100 15 -1 4 328
1995279N15153 1995 78 WP MM VAL 1995-10-06 15:00:00 NR 15.7575 152.000 main 2068 2065 P_____________ WP251995 15.7575 152.000 15 -1 4 327
1995279N15153 1995 78 WP MM VAL 1995-10-06 18:00:00 NR 15.9000 151.900 main 2076 2076 O_____________ jtwc_wp WP251995 15.9000 151.900 15 -1 3 321
1995279N15153 1995 78 WP MM VAL 1995-10-06 21:00:00 NR 16.0000 151.800 main 2084 2082 P_____________ WP251995 16.0000 151.800 15 -1 3 316
1995279N15153 1995 78 WP MM VAL 1995-10-07 00:00:00 NR 16.1000 151.700 main 2092 2092 O_____________ jtwc_wp WP251995 16.1000 151.700 15 -1 3 323
1995279N15153 1995 78 WP MM VAL 1995-10-07 03:00:00 NR 16.2500 151.607 main 2101 2101 P_____________ WP251995 16.2500 151.607 15 -1 4 327
1995279N15153 1995 78 WP MM VAL 1995-10-07 06:00:00 NR 16.4000 151.500 main 2120 2120 O_____________ jtwc_wp WP251995 16.4000 151.500 15 -1 3 322
1995279N15153 1995 78 WP MM VAL 1995-10-07 09:00:00 NR 16.5074 151.395 main 2129 2127 P_____________ WP251995 16.5074 151.395 15 -1 4 305
1995279N15153 1995 78 WP MM VAL 1995-10-07 12:00:00 NR 16.6000 151.200 main 2135 2133 O_____________ jtwc_wp WP251995 16.6000 151.200 15 -1 6 291
1995279N15153 1995 78 WP MM VAL 1995-10-07 15:00:00 NR 16.7076 150.838 main 2138 2136 P_____________ WP251995 16.7076 150.838 17 -1 8 285
1995279N15153 1995 78 WP MM VAL 1995-10-07 18:00:00 NR 16.8000 150.400 main 2142 2139 O_____________ jtwc_wp WP251995 16.8000 150.400 20 -1 8 282
1995279N15153 1995 78 WP MM VAL 1995-10-07 21:00:00 NR 16.8724 150.008 main 2147 2141 P_____________ WP251995 16.8724 150.008 20 -1 8 277
1995279N15153 1995 78 WP MM VAL 1995-10-08 00:00:00 NR 16.9000 149.600 main 2141 2137 O_____________ jtwc_wp WP251995 16.9000 149.600 20 -1 8 268
1995279N15153 1995 78 WP MM VAL 1995-10-08 03:00:00 NR 16.8500 149.142 main 2136 2131 P_____________ WP251995 16.8500 149.142 20 -1 11 272
1995279N15153 1995 78 WP MM VAL 1995-10-08 06:00:00 TS 16.9400 148.460 1002 tokyo main 2131 2131 OO____________ jtwc_wp WP251995 16.8000 148.700 20 -1 17.5000 147.500 2 1002 0 0 0 10 287
1995279N15153 1995 78 WP MM VAL 1995-10-08 09:00:00 TS 17.1292 148.164 main 2151 2112 PP____________ WP251995 16.8124 148.327 20 -1 17.7627 147.837 2 1002 0 0 6 315
1995279N15153 1995 78 WP MM VAL 1995-10-08 12:00:00 TS 17.3714 148.000 1002 tokyo main 2112 2084 OO____________ jtwc_wp WP251995 16.9000 148.000 20 -1 18.0000 148.000 2 1002 0 0 0 6 322
1995279N15153 1995 78 WP MM VAL 1995-10-08 15:00:00 TS 17.6224 147.762 main 2084 2041 PP____________ WP251995 17.0325 147.663 20 -1 18.2123 147.862 2 1002 0 0 7 315
1995279N15153 1995 78 WP MM VAL 1995-10-08 18:00:00 TS 17.9000 147.450 1002 tokyo main 2041 1974 OO____________ jtwc_wp WP251995 17.3000 147.400 20 -1 18.5000 147.500 2 1002 0 0 0 10 321
1995279N15153 1995 78 WP MM VAL 1995-10-08 21:00:00 TS 18.3814 147.121 main 1974 1911 PP____________ WP251995 17.7474 147.240 20 -1 19.0154 147.001 2 1002 0 0 12 330
1995279N15153 1995 78 WP MM VAL 1995-10-09 00:00:00 TS 18.9667 146.811 1002 tokyo main 1901 1865 OOO___________ jtwc_wp WP251995 18.3000 147.200 20 -1 19.5000 146.500 2 1002 0 0 0 19.5000 146.500 1 23 1002 11 336
1995279N15153 1995 78 WP MM VAL 1995-10-09 03:00:00 TS 19.3434 146.671 main 1865 1827 PPP___________ WP251995 18.8425 147.314 22 -1 19.6947 146.227 2 1002 0 0 19.6425 146.275 1 23 1002 7 338
1995279N15153 1995 78 WP MM VAL 1995-10-09 06:00:00 TS 19.6545 146.509 1002 tokyo main 1816 1774 OOO___________ jtwc_wp WP251995 19.4000 147.400 25 -1 19.8000 146.000 2 1002 0 0 0 19.8000 146.000 1 23 1002 8 325
1995279N15153 1995 78 WP MM VAL 1995-10-09 09:00:00 TS 19.9758 146.197 main 1774 1732 PPP___________ WP251995 19.9573 147.290 25 -1 19.9851 145.650 2 1002 0 0 19.9851 145.650 1 26 1001 9 317
1995279N15153 1995 78 WP MM VAL 1995-10-09 12:00:00 TS 20.3000 145.867 1002 tokyo main 1732 1691 OOO___________ jtwc_wp WP251995 20.5000 147.000 25 -1 20.2000 145.300 2 1002 0 0 0 20.2000 145.300 1 29 1000 9 316
1995279N15153 1995 78 WP MM VAL 1995-10-09 15:00:00 TS 20.6082 145.555 main 1691 1646 PPP___________ WP251995 20.9998 146.582 27 -1 20.4124 145.042 2 1002 0 0 20.4124 145.042 1 29 1000 9 317
1995279N15153 1995 78 WP MM VAL 1995-10-09 18:00:00 TS 20.9667 145.200 1002 tokyo main 1635 1581 OOO___________ jtwc_wp WP251995 21.5000 146.000 30 -1 20.7000 144.800 2 1002 0 0 0 20.7000 144.800 1 29 1000 11 319
1995279N15153 1995 78 WP MM VAL 1995-10-09 21:00:00 TS 21.4299 144.780 main 1581 1513 PPP___________ WP251995 22.0500 145.295 32 -1 21.1199 144.522 2 1002 0 0 21.1199 144.522 1 29 1000 13 319
1995279N15153 1995 78 WP MM VAL 1995-10-10 00:00:00 TS 21.9231 144.292 1002 tokyo main 1513 1456 OOOO__________ jtwc_wp WP251995 22.6000 144.500 35 0 21.6000 144.200 2 1002 0 0 0 21.6000 144.200 1 29 1000 21.8000 144.200 TD 25 1004 13 316
1995279N15153 1995 78 WP MM VAL 1995-10-10 03:00:00 TS 22.3682 143.802 main 1445 1384 PPPP__________ WP251995 23.1375 143.685 35 0 22.0192 143.889 2 1002 0 0 22.0192 143.889 1 29 1000 22.2251 143.688 TD 25 1004 14 312
1995279N15153 1995 78 WP MM VAL 1995-10-10 06:00:00 TS 22.8333 143.207 1002 tokyo main 1384 1303 OOOO__________ jtwc_wp WP251995 23.6000 142.900 35 0 22.5000 143.400 2 1002 0 0 0 22.5000 143.400 1 29 1000 22.7000 143.100 TD 25 1004 16 308
1995279N15153 1995 78 WP MM VAL 1995-10-10 09:00:00 TS 23.3704 142.425 main 1288 1201 PPPP__________ WP251995 23.9293 142.234 37 0 23.1511 142.539 2 1001 0 0 23.1511 142.539 1 29 1000 23.2499 142.388 TD 25 1004 18 306
1995279N15153 1995 78 WP MM VAL 1995-10-10 12:00:00 TS 23.9000 141.600 1000 tokyo main 1201 1130 OOOO__________ jtwc_wp WP251995 24.2000 141.600 40 0 23.8000 141.600 2 1000 0 0 0 23.8000 141.600 1 29 1000 23.8000 141.600 TD 25 1004 17 304
1995279N15153 1995 78 WP MM VAL 1995-10-10 15:00:00 TS 24.3402 140.873 main 1130 1060 PPPP__________ WP251995 24.4998 140.907 42 0 24.2866 140.911 2 1000 0 0 24.2866 140.911 1 29 1000 24.2878 140.763 TD 25 1004 15 303
1995279N15153 1995 78 WP MM VAL 1995-10-10 18:00:00 TS 24.7250 140.200 1000 tokyo main 1060 996 OOOO__________ jtwc_wp WP251995 24.8000 140.200 45 0 24.7000 140.300 2 1000 0 0 0 24.7000 140.300 1 29 1000 24.7000 140.000 TD 25 1004 14 302
1995279N15153 1995 78 WP MM VAL 1995-10-10 21:00:00 TS 25.0918 139.530 main 993 944 PPPP__________ WP251995 25.1078 139.448 45 0 25.1148 139.642 2 999 0 0 25.1303 139.590 1 29 999 25.0144 139.439 TD 27 1002 13 302
1995279N15153 1995 78 WP MM VAL 1995-10-11 00:00:00 TS 25.4250 138.950 35 998 tokyo main 944 897 OOOO__________ jtwc_wp WP251995 25.4000 138.800 45 0 25.5000 139.000 3 35 998 0 8 120 60 0 25.5000 139.000 1 29 998 25.3000 139.000 TD 30 1000 12 305
1995279N15153 1995 78 WP MM VAL 1995-10-11 03:00:00 TS 25.7454 138.484 main 897 857 PPPP__________ WP251995 25.6570 138.375 45 0 25.8878 138.325 3 37 997 0 8 135 70 25.7945 138.689 1 33 996 25.6425 138.548 TD 32 999 9 310
1995279N15153 1995 78 WP MM VAL 1995-10-11 06:00:00 TS 26.0250 138.150 40 996 tokyo main 857 828 OOOO__________ jtwc_wp WP251995 25.9000 138.100 45 0 26.2000 137.800 3 40 996 0 8 150 80 0 26.0000 138.500 2 38 995 26.0000 138.200 TS 35 998 7 315
1995279N15153 1995 78 WP MM VAL 1995-10-11 09:00:00 TS 26.2523 137.921 main 817 804 PPPP__________ WP251995 26.1574 137.862 45 0 26.3871 137.574 3 40 996 0 8 180 100 26.0999 138.265 2 38 995 26.3648 137.982 TS 40 994 5 322
1995279N15153 1995 78 WP MM VAL 1995-10-11 12:00:00 TS 26.4500 137.775 40 996 tokyo main 793 767 OOOO__________ jtwc_wp WP251995 26.4000 137.700 45 0 26.5000 137.500 3 40 996 0 8 210 120 0 26.2000 138.000 2 38 995 26.7000 137.900 TS 45 990 5 329
1995279N15153 1995 78 WP MM VAL 1995-10-11 15:00:00 TS 26.6744 137.635 main 767 754 PPPP__________ WP251995 26.6374 137.607 45 0 26.6225 137.400 3 40 996 0 8 225 120 26.4652 137.636 2 38 995 26.9724 137.897 TS 42 991 5 331
1995279N15153 1995 78 WP MM VAL 1995-10-11 18:00:00 TS 26.8500 137.525 40 996 tokyo main 743 730 OOOO__________ jtwc_wp WP251995 26.8000 137.500 45 0 26.7000 137.300 3 40 996 0 8 240 120 0 26.7000 137.300 2 38 995 27.2000 138.000 TS 40 992 3 325
1995279N15153 1995 78 WP MM VAL 1995-10-11 21:00:00 TS 26.9563 137.415 main 730 730 PPPP__________ WP251995 26.8677 137.242 45 0 26.7526 137.135 3 40 996 0 8 255 135 26.7749 137.112 2 38 995 27.4300 138.170 TS 40 992 2 303
1995279N15153 1995 78 WP MM VAL 1995-10-12 00:00:00 TS 26.9500 137.350 40 996 tokyo main 730 739 OOOO__________ jtwc_wp WP251995 26.8000 137.000 45 0 26.7000 137.000 3 40 996 0 7 270 150 0 26.7000 137.000 2 38 995 27.6000 138.400 TS 40 992 1 208
1995279N15153 1995 78 WP MM VAL 1995-10-12 03:00:00 TS 26.8350 137.339 main 750 750 PPPP__________ WP251995 26.5874 136.905 45 0 26.5249 136.955 3 40 996 0 7 270 150 26.4949 136.824 2 38 995 27.7326 138.672 TS 40 992 4 174
1995279N15153 1995 78 WP MM VAL 1995-10-12 06:00:00 TS 26.6000 137.400 40 996 tokyo main 774 774 OOOO__________ jtwc_wp WP251995 26.3000 136.900 45 0 26.2000 137.000 3 40 996 0 7 270 150 0 26.2000 136.800 2 38 995 27.7000 138.900 TS 40 992 6 164
1995279N15153 1995 78 WP MM VAL 1995-10-12 09:00:00 TS 26.2669 137.528 main 809 809 PPPP__________ WP251995 26.0575 136.928 42 0 25.6999 137.105 3 40 996 0 7 270 150 25.8927 137.083 2 38 995 27.4174 138.995 TS 37 994 8 159
1995279N15153 1995 78 WP MM VAL 1995-10-12 12:00:00 TS 25.9000 137.700 40 996 tokyo main 856 856 OOOO__________ jtwc_wp WP251995 25.8000 137.000 40 0 25.2000 137.300 3 40 996 0 7 270 150 0 25.6000 137.500 2 38 995 27.0000 139.000 TS 35 996 8 156
1995279N15153 1995 78 WP MM VAL 1995-10-12 15:00:00 TS 25.5862 137.869 main 893 893 PPPP__________ WP251995 25.4925 137.077 40 0 24.8751 137.593 3 37 996 0 7 255 135 25.3699 137.842 2 36 995 26.6075 138.965 TS 35 996 7 151
1995279N15153 1995 78 WP MM VAL 1995-10-12 18:00:00 TS 25.3250 138.050 35 996 tokyo main 930 928 OOOO__________ jtwc_wp WP251995 25.2000 137.200 40 0 24.7000 137.900 3 35 996 0 7 240 120 0 25.2000 138.200 2 34 996 26.2000 138.900 TS 35 996 6 145
1995279N15153 1995 78 WP MM VAL 1995-10-12 21:00:00 TS 25.1200 138.234 main 955 955 PPPP__________ WP251995 24.9699 137.370 35 0 24.6548 138.100 3 35 996 0 7 220 110 25.0701 138.615 2 31 997 25.7850 138.850 TS 35 996 5 136
1995279N15153 1995 78 WP MM VAL 1995-10-13 00:00:00 TS 24.9750 138.425 35 996 tokyo main 970 970 OOOO__________ jtwc_wp WP251995 24.8000 137.600 30 -1 24.7000 138.300 3 35 996 0 7 200 100 0 25.0000 139.000 1 29 998 25.4000 138.800 TS 35 996 4 123
1995279N15153 1995 78 WP MM VAL 1995-10-13 03:00:00 TS 24.8838 138.636 main 986 986 PPPP__________ WP251995 24.6776 137.892 30 -1 24.7576 138.607 3 35 996 0 7 200 100 25.0149 139.295 1 29 998 25.0850 138.750 TS 35 996 4 115
1995279N15153 1995 78 WP MM VAL 1995-10-13 06:00:00 TS 24.8000 138.833 35 996 tokyo main 1002 1002 OOOO__________ jtwc_wp WP251995 24.6000 138.200 30 -1 24.8000 138.900 3 35 996 0 7 200 100 0 25.0000 139.500 1 29 998 24.8000 138.700 TS 35 996 4 117
1995279N15153 1995 78 WP MM VAL 1995-10-13 09:00:00 TS 24.7064 139.013 main 1019 1019 PPPP__________ WP251995 24.5725 138.480 30 -1 24.7949 139.080 3 997 0 7 24.8524 139.660 1 29 998 24.5050 138.650 TS 32 998 4 128
1995279N15153 1995 78 WP MM VAL 1995-10-13 12:00:00 TS 24.5692 139.154 998 tokyo main 1036 1036 OOOO__________ jtwc_wp WP251995 24.5000 138.700 30 -1 24.7000 139.200 2 998 0 0 0 24.6000 139.700 1 29 998 24.2000 138.600 TD 30 1000 4 147
1995279N15153 1995 78 WP MM VAL 1995-10-13 15:00:00 TS 24.3541 139.272 main 1060 1060 PPP___________ WP251995 24.2874 138.868 30 -1 24.5100 139.353 2 998 0 0 24.2650 139.595 1 29 998 TD 5 173
1995279N15153 1995 78 WP MM VAL 1995-10-13 18:00:00 TS 24.0333 139.233 998 tokyo main 1100 1100 OOO___________ jtwc_wp WP251995 24.0000 138.900 30 -1 24.2000 139.400 2 998 0 0 0 23.9000 139.400 1 29 998 7 194
1995279N15153 1995 78 WP MM VAL 1995-10-13 21:00:00 TS 23.6958 139.086 main 1129 1129 PPP___________ WP251995 23.7075 138.760 30 -1 23.7724 139.267 2 999 0 0 23.6074 139.230 1 29 999 8 208
1995279N15153 1995 78 WP MM VAL 1995-10-14 00:00:00 TS 23.3333 138.833 1000 tokyo main 1161 1161 OOO___________ jtwc_wp WP251995 23.4000 138.500 30 -1 23.3000 139.000 2 1000 0 0 0 23.3000 139.000 1 29 1000 9 215
1995279N15153 1995 78 WP MM VAL 1995-10-14 03:00:00 TS 22.9393 138.505 main 1179 1173 PPP___________ WP251995 23.0702 138.170 25 -1 22.8626 138.672 2 1000 0 0 22.8851 138.672 1 29 1000 10 221
1995279N15153 1995 78 WP MM VAL 1995-10-14 06:00:00 TS 22.6091 138.155 1000 tokyo main 1190 1184 OOO___________ jtwc_wp WP251995 22.8000 137.900 20 -1 22.5000 138.300 2 1000 0 0 0 22.5000 138.300 1 29 1000 7 226
1995279N15153 1995 78 WP MM VAL 1995-10-14 09:00:00 TS 22.4179 137.926 main 1193 1187 PPP___________ WP251995 22.6698 137.900 20 -1 22.2475 137.943 2 1000 0 0 22.2551 137.943 1 29 1000 5 235
1995279N15153 1995 78 WP MM VAL 1995-10-14 12:00:00 TS 22.3500 137.750 1000 tokyo main 1187 1177 OOO___________ jtwc_wp WP251995 22.6000 137.900 20 -1 22.1000 137.600 2 1000 0 0 0 22.1000 137.600 1 29 1000 4 260
1995279N15153 1995 78 WP MM VAL 1995-10-14 15:00:00 TS 22.3534 137.537 main 1172 1171 PP____________ WP251995 22.5150 137.660 20 -1 22.0301 137.290 2 1001 0 0 1 5 266
1995279N15153 1995 78 WP MM VAL 1995-10-14 18:00:00 TS 22.3200 137.240 1002 tokyo main 1165 1160 OO____________ jtwc_wp WP251995 22.4000 137.300 20 -1 22.0000 137.000 2 1002 0 0 0 5 254
1995279N15153 1995 78 WP MM VAL 1995-10-14 21:00:00 NR 22.2068 136.983 main 1164 1158 P_____________ WP251995 22.2068 136.983 20 -1 2 0 0 8 245
1995279N15153 1995 78 WP MM VAL 1995-10-15 00:00:00 NR 22.0000 136.500 main 1158 1131 O_____________ jtwc_wp WP251995 22.0000 136.500 20 -1 13 254
1995279N15153 1995 78 WP MM VAL 1995-10-15 03:00:00 NR 21.8588 135.642 main 1126 1112 P_____________ WP251995 21.8588 135.642 20 -1 16 259
1995279N15153 1995 78 WP MM VAL 1995-10-15 06:00:00 NR 21.7000 134.800 main 1115 1112 O_____________ jtwc_wp WP251995 21.7000 134.800 20 -1 12 251
1995279N15153 1995 78 WP MM VAL 1995-10-15 09:00:00 NR 21.4642 134.383 main 1123 1123 P_____________ WP251995 21.4642 134.383 20 -1 8 233
1995279N15153 1995 78 WP MM VAL 1995-10-15 12:00:00 NR 21.2000 134.100 main 1145 1142 O_____________ jtwc_wp WP251995 21.2000 134.100 20 -1 8 230
1995279N15153 1995 78 WP MM VAL 1995-10-15 15:00:00 NR 20.9425 133.708 main 1167 1164 P_____________ WP251995 20.9425 133.708 20 -1 9 236
1995279N15153 1995 78 WP MM VAL 1995-10-15 18:00:00 NR 20.7000 133.300 main 1179 1135 O_____________ jtwc_wp WP251995 20.7000 133.300 20 -1 9 239
1995279N15153 1995 78 WP MM VAL 1995-10-15 21:00:00 NR 20.4849 132.900 main 1135 1090 P_____________ WP251995 20.4849 132.900 20 -1 9 242
1995279N15153 1995 78 WP MM VAL 1995-10-16 00:00:00 NR 20.3000 132.500 main 1090 1046 O_____________ jtwc_wp WP251995 20.3000 132.500 20 -1 8 245
1995279N15153 1995 78 WP MM VAL 1995-10-16 03:00:00 NR 20.1350 132.093 main 1046 1003 P_____________ WP251995 20.1350 132.093 20 -1 8 248
1995279N15153 1995 78 WP MM VAL 1995-10-16 06:00:00 NR 20.0000 131.700 main 1003 970 O_____________ jtwc_wp WP251995 20.0000 131.700 20 -1 7 251
1995279N15153 1995 78 WP MM VAL 1995-10-16 09:00:00 NR 19.8998 131.350 main 970 927 P_____________ WP251995 19.8998 131.350 20 -1 7 253
1995279N15153 1995 78 WP MM VAL 1995-10-16 12:00:00 NR 19.8000 131.000 main 927 884 O_____________ jtwc_wp WP251995 19.8000 131.000 20 -1 7 252
1995279N15153 1995 78 WP MM VAL 1995-10-16 15:00:00 NR 19.6725 130.608 main 884 839 P_____________ WP251995 19.6725 130.608 20 -1 8 248
1995279N15153 1995 78 WP MM VAL 1995-10-16 18:00:00 NR 19.5000 130.200 main 839 795 O_____________ jtwc_wp WP251995 19.5000 130.200 20 -1 9 242
1995279N15153 1995 78 WP MM VAL 1995-10-16 21:00:00 NR 19.2575 129.792 main 795 750 P_____________ WP251995 19.2575 129.792 20 -1 9 236
1995279N15153 1995 78 WP MM VAL 1995-10-17 00:00:00 NR 19.0000 129.400 main 750 718 O_____________ jtwc_wp WP251995 19.0000 129.400 20 -1 8 238
1995279N15153 1995 78 WP MM VAL 1995-10-17 03:00:00 NR 18.8149 129.043 main 707 675 P_____________ WP251995 18.8149 129.043 17 -1 8 239
1995279N15153 1995 78 WP MM VAL 1995-10-17 06:00:00 NR 18.6000 128.700 main 675 641 O_____________ jtwc_wp WP251995 18.6000 128.700 15 -1 8 231
1995279N15153 1995 78 WP MM VAL 1995-10-17 09:00:00 NR 18.2827 128.352 main 641 589 P_____________ WP251995 18.2827 128.352 15 -1 10 224
1995279N15153 1995 78 WP MM VAL 1995-10-17 12:00:00 NR 17.9000 128.000 main 589 O_____________ jtwc_wp WP251995 17.9000 128.000 15 -1 10 221

デジタル台風データ・検索

IBTrACS Databaseについて

本データベースは、米国NOAAが公開する1842年以降の世界の熱帯低気圧のベストトラックデータアーカイブInternational Best Track Archive for Climate Stewardship (IBTrACS)を、ウェブで閲覧しやすい形式に変換したものです。

最終更新日:2021-12-01